Time;durP1;ratioP1;P1;durP2;ratioP2;P2;SDS_P1;SDS_P2;PMS_P1;PMS_P2;Temp;Humidity;BMP_temperature;BMP_pressure;BME280_temperature;BME280_humidity;BME280_pressure;Samples;Min_cycle;Max_cycle;Signal;HPM_P1;HPM_P2
2022/10/13 00:00:26;;;;;;;11.82;5.78;;;;;;;18.52;65.48;101652.81;5056219;28;20366;-58
2022/10/13 00:02:53;;;;;;;10.27;5.47;;;;;;;18.55;65.14;101652.34;5066512;28;20388;-56
2022/10/13 00:05:19;;;;;;;11.35;5.82;;;;;;;18.39;65.75;101647.66;5071651;28;20028;-56
2022/10/13 00:07:46;;;;;;;13.15;6.43;;;;;;;18.28;66.28;101652.03;5054487;28;20028;-58
2022/10/13 00:10:12;;;;;;;11.93;5.47;;;;;;;18.14;66.05;101648.75;5056345;28;20040;-59
2022/10/13 00:12:38;;;;;;;11.85;5.20;;;;;;;18.11;66.52;101640.28;5061047;28;20097;-59
2022/10/13 00:15:07;;;;;;;8.77;5.20;;;;;;;18.18;67.24;101636.38;5066711;28;20039;-59
2022/10/13 00:17:35;;;;;;;10.00;5.85;;;;;;;17.86;68.20;101645.91;5071380;28;20017;-59
2022/10/13 00:20:02;;;;;;;10.88;5.18;;;;;;;17.75;68.54;101646.72;5063845;28;20119;-59
2022/10/13 00:22:29;;;;;;;8.85;5.10;;;;;;;17.90;67.81;101641.69;5062403;28;20151;-59
2022/10/13 00:24:55;;;;;;;9.85;5.45;;;;;;;17.86;68.44;101637.78;5054641;28;20083;-59
2022/10/13 00:27:22;;;;;;;10.45;5.32;;;;;;;17.87;67.83;101634.03;5055243;28;20492;-59
2022/10/13 00:29:48;;;;;;;8.27;5.55;;;;;;;17.68;68.84;101634.09;5054863;28;20435;-59
2022/10/13 00:32:14;;;;;;;9.73;5.95;;;;;;;17.82;68.72;101636.59;5055250;28;20024;-59
2022/10/13 00:34:40;;;;;;;8.60;5.20;;;;;;;17.76;69.20;101638.38;5054480;28;20036;-59
2022/10/13 00:37:07;;;;;;;13.05;5.40;;;;;;;17.39;69.92;101643.13;5054802;28;20025;-59
2022/10/13 00:39:33;;;;;;;9.80;5.20;;;;;;;17.50;69.95;101636.09;5054797;28;20502;-59
2022/10/13 00:42:00;;;;;;;10.90;5.10;;;;;;;17.52;69.71;101636.66;5054542;28;20452;-59
2022/10/13 00:44:57;;;;;;;8.13;5.50;;;;;;;17.53;69.96;101635.59;5054573;28;20024;-59
2022/10/13 00:47:25;;;;;;;10.55;5.32;;;;;;;17.51;69.81;101633.13;5054876;28;20071;-58
2022/10/13 00:49:54;;;;;;;10.00;5.35;;;;;;;17.35;70.05;101636.50;5065509;28;20029;-59
2022/10/13 00:52:22;;;;;;;10.20;5.25;;;;;;;17.44;70.14;101631.59;5073760;28;20054;-58
2022/10/13 00:54:50;;;;;;;12.68;6.30;;;;;;;17.48;69.48;101630.06;5073890;28;20078;-59
2022/10/13 00:57:19;;;;;;;8.70;5.68;;;;;;;17.30;70.49;101633.69;5074618;28;20027;-59
2022/10/13 00:59:47;;;;;;;10.65;5.30;;;;;;;17.41;70.07;101627.47;5070421;28;20042;-59
2022/10/13 01:02:14;;;;;;;6.53;4.90;;;;;;;17.30;70.80;101636.38;5061739;28;20024;-59
2022/10/13 01:04:44;;;;;;;11.43;5.82;;;;;;;17.26;70.65;101635.19;5066982;28;20017;-58
2022/10/13 01:07:13;;;;;;;8.95;5.13;;;;;;;17.26;70.67;101640.59;5063057;28;20387;-59
2022/10/13 01:09:41;;;;;;;13.63;5.40;;;;;;;17.24;70.50;101640.00;5093827;28;20480;-58
2022/10/13 01:12:22;;;;;;;9.35;5.50;;;;;;;17.14;71.09;101630.56;5094500;28;20024;-58
2022/10/13 01:14:57;;;;;;;12.98;5.47;;;;;;;16.90;71.87;101639.66;5093647;28;20032;-58
2022/10/13 01:17:23;;;;;;;12.40;5.88;;;;;;;16.66;73.16;101636.00;5058028;28;20105;-58
2022/10/13 01:19:51;;;;;;;10.73;6.40;;;;;;;16.58;73.59;101634.41;5055077;28;20067;-58
2022/10/13 01:22:36;;;;;;;12.50;5.50;;;;;;;16.73;73.74;101646.75;5063998;28;20381;-58
2022/10/13 01:25:28;;;;;;;20.25;6.82;;;;;;;16.60;73.34;101635.00;5053090;28;20060;-58
2022/10/13 01:28:17;;;;;;;10.20;5.63;;;;;;;16.58;73.99;101637.09;5052872;28;20079;-58
2022/10/13 01:30:51;;;;;;;12.13;6.05;;;;;;;16.53;74.04;101642.34;5012871;28;20436;-58
2022/10/13 01:33:34;;;;;;;17.10;6.15;;;;;;;16.30;74.95;101648.44;5051698;28;20028;-57
2022/10/13 01:36:26;;;;;;;9.38;5.15;;;;;;;16.13;75.58;101647.38;5052720;28;20447;-58
2022/10/13 01:39:08;;;;;;;10.68;6.10;;;;;;;16.21;75.22;101643.53;5052899;28;20075;-58
2022/10/13 01:41:49;;;;;;;13.02;6.53;;;;;;;15.96;76.49;101655.22;5053125;28;20049;-58
2022/10/13 01:44:28;;;;;;;10.27;5.82;;;;;;;16.08;76.14;101658.84;5053055;28;20025;-58
2022/10/13 01:46:56;;;;;;;11.70;5.95;;;;;;;16.13;75.47;101651.94;5053619;28;20033;-58
2022/10/13 01:49:28;;;;;;;12.80;6.55;;;;;;;16.31;74.87;101657.38;5053026;28;20477;-57
2022/10/13 01:51:59;;;;;;;7.70;5.53;;;;;;;15.87;76.51;101661.94;5052608;28;20032;-58
2022/10/13 01:54:25;;;;;;;12.48;6.38;;;;;;;15.92;76.03;101654.00;5052782;28;20025;-58
2022/10/13 01:56:55;;;;;;;11.05;6.00;;;;;;;16.08;75.25;101649.91;5053032;28;20021;-58
2022/10/13 01:59:25;;;;;;;11.02;5.63;;;;;;;16.05;75.16;101653.91;5052997;28;20112;-58
2022/10/13 02:02:04;;;;;;;11.20;6.43;;;;;;;16.05;75.39;101658.47;5069464;28;20511;-58
2022/10/13 02:04:45;;;;;;;9.52;6.20;;;;;;;15.91;75.50;101663.16;5070446;28;20067;-58
2022/10/13 02:07:26;;;;;;;11.23;6.50;;;;;;;15.92;75.67;101659.41;5072825;28;20090;-58
2022/10/13 02:10:08;;;;;;;10.88;6.07;;;;;;;15.98;75.69;101663.09;5052688;28;20079;-58
2022/10/13 02:12:56;;;;;;;10.20;6.43;;;;;;;15.53;77.35;101665.91;5052543;28;20029;-58
2022/10/13 02:15:28;;;;;;;12.15;6.57;;;;;;;15.46;77.65;101665.97;5052255;28;20021;-58
2022/10/13 02:17:55;;;;;;;8.70;6.07;;;;;;;15.59;77.19;101670.44;5067796;28;20075;-59
2022/10/13 02:20:21;;;;;;;12.35;6.45;;;;;;;15.55;77.39;101663.84;5061476;28;20028;-59
2022/10/13 02:22:54;;;;;;;8.45;5.90;;;;;;;15.42;77.80;101678.22;5072447;28;20031;-58
2022/10/13 02:25:20;;;;;;;11.30;6.45;;;;;;;15.34;78.48;101677.69;5071080;28;20028;-59
2022/10/13 02:27:47;;;;;;;13.95;6.80;;;;;;;15.29;78.37;101681.03;5059731;28;20025;-58
2022/10/13 02:30:27;;;;;;;9.18;6.45;;;;;;;15.32;78.12;101680.56;5061489;28;20036;-58
2022/10/13 02:32:53;;;;;;;13.20;7.32;;;;;;;15.27;78.97;101680.44;5072052;28;20060;-59
2022/10/13 02:35:20;;;;;;;10.02;7.13;;;;;;;15.08;79.41;101684.88;5071936;28;20395;-59
2022/10/13 02:37:46;;;;;;;11.70;6.95;;;;;;;15.23;79.10;101690.00;5071353;28;20028;-59
2022/10/13 02:40:13;;;;;;;12.07;7.35;;;;;;;15.14;79.55;101685.88;5071435;28;20499;-59
2022/10/13 02:42:39;;;;;;;11.60;6.28;;;;;;;15.04;80.13;101684.47;5072203;28;20387;-58
2022/10/13 02:45:06;;;;;;;9.57;6.40;;;;;;;15.14;79.47;101678.59;5071472;28;20024;-59
2022/10/13 02:47:32;;;;;;;10.43;6.47;;;;;;;15.18;78.80;101682.53;5072148;28;20103;-58
2022/10/13 02:49:58;;;;;;;12.27;7.25;;;;;;;14.96;79.78;101682.03;5072146;28;20020;-59
2022/10/13 02:52:25;;;;;;;8.48;6.80;;;;;;;15.03;80.12;101687.38;5071627;28;20480;-59
2022/10/13 02:54:51;;;;;;;11.13;6.70;;;;;;;15.12;79.83;101679.88;5071814;28;20021;-59
2022/10/13 02:57:18;;;;;;;11.05;6.78;;;;;;;15.20;79.39;101685.00;5071958;28;20051;-57
2022/10/13 02:59:44;;;;;;;13.88;7.65;;;;;;;15.08;79.59;101675.97;5071916;28;20029;-58
2022/10/13 03:02:10;;;;;;;12.65;6.82;;;;;;;14.98;80.26;101679.94;5071433;28;20028;-57
2022/10/13 03:04:37;;;;;;;13.48;7.50;;;;;;;15.19;79.61;101683.38;5071711;28;20020;-57
2022/10/13 03:07:03;;;;;;;11.00;6.45;;;;;;;15.24;79.13;101688.94;5071705;28;20028;-57
2022/10/13 03:09:29;;;;;;;12.35;7.25;;;;;;;15.32;78.69;101697.63;5071783;28;20438;-57
2022/10/13 03:11:55;;;;;;;10.30;6.38;;;;;;;15.09;78.80;101683.81;5071559;28;20047;-58
2022/10/13 03:14:21;;;;;;;11.23;6.45;;;;;;;15.05;78.90;101683.44;5064727;28;20070;-57
2022/10/13 03:16:47;;;;;;;13.45;6.65;;;;;;;15.12;78.89;101696.06;5071570;28;20024;-57
2022/10/13 03:19:14;;;;;;;12.70;7.35;;;;;;;15.02;79.55;101697.34;5071329;28;20020;-57
2022/10/13 03:21:40;;;;;;;12.07;7.13;;;;;;;15.19;78.81;101691.44;5071918;28;20574;-57
2022/10/13 03:24:06;;;;;;;13.07;7.43;;;;;;;15.07;78.96;101690.50;5071535;28;20025;-57
2022/10/13 03:26:34;;;;;;;13.85;6.95;;;;;;;14.90;79.90;101688.28;5069254;28;20028;-57
2022/10/13 03:29:00;;;;;;;9.77;7.07;;;;;;;15.07;79.28;101693.19;5051353;28;20032;-57
2022/10/13 03:31:27;;;;;;;8.02;6.07;;;;;;;14.86;80.16;101689.75;5051578;28;20013;-57
2022/10/13 03:33:53;;;;;;;9.68;6.82;;;;;;;14.98;79.67;101695.28;5051356;28;20032;-57
2022/10/13 03:36:19;;;;;;;15.77;7.05;;;;;;;14.91;80.22;101699.88;5051287;28;20082;-56
2022/10/13 03:38:45;;;;;;;10.65;7.00;;;;;;;15.13;79.30;101695.00;5051474;28;20128;-57
2022/10/13 03:41:15;;;;;;;12.70;7.10;;;;;;;14.94;79.57;101697.59;5051341;28;20515;-57
2022/10/13 03:43:42;;;;;;;12.48;7.20;;;;;;;14.95;79.20;101693.03;5051479;28;20488;-58
2022/10/13 03:46:12;;;;;;;11.48;7.35;;;;;;;14.91;79.60;101698.00;5051842;28;20024;-58
2022/10/13 03:48:39;;;;;;;11.15;7.15;;;;;;;14.88;80.18;101709.25;5051813;28;20025;-58
2022/10/13 03:51:10;;;;;;;11.50;7.05;;;;;;;14.92;79.91;101705.06;5051428;28;20334;-58
2022/10/13 03:53:37;;;;;;;12.20;7.05;;;;;;;14.69;80.15;101708.25;5051118;28;20032;-57
2022/10/13 03:56:04;;;;;;;11.90;6.93;;;;;;;14.68;80.08;101706.59;5051283;28;20021;-58
2022/10/13 03:58:31;;;;;;;10.80;6.65;;;;;;;14.78;79.51;101706.97;5051446;28;20373;-58
2022/10/13 04:01:02;;;;;;;11.55;6.97;;;;;;;14.72;80.24;101704.31;5051111;28;20116;-57
2022/10/13 04:03:28;;;;;;;13.15;6.97;;;;;;;14.85;80.32;101706.13;5051110;28;20021;-58
2022/10/13 04:05:54;;;;;;;12.98;7.45;;;;;;;14.71;81.05;101705.34;5051329;28;20047;-58
2022/10/13 04:08:20;;;;;;;12.80;6.93;;;;;;;14.86;80.31;101711.31;5051295;28;20075;-58
2022/10/13 04:10:47;;;;;;;13.23;7.65;;;;;;;14.84;80.34;101709.88;5051157;28;20043;-58
2022/10/13 04:13:13;;;;;;;9.85;6.60;;;;;;;14.76;80.30;101719.00;5051212;28;20024;-58
2022/10/13 04:15:40;;;;;;;12.27;6.40;;;;;;;14.66;80.19;101710.56;5050757;28;20029;-57
2022/10/13 04:18:07;;;;;;;13.07;7.07;;;;;;;14.58;80.98;101710.78;5050794;28;20032;-57
2022/10/13 04:20:39;;;;;;;10.48;6.85;;;;;;;14.59;80.94;101715.94;5051011;28;20394;-57
2022/10/13 04:23:06;;;;;;;13.25;6.88;;;;;;;14.69;80.27;101721.72;5052443;28;20029;-57
2022/10/13 04:25:37;;;;;;;15.63;7.30;;;;;;;14.69;80.55;101723.59;5071283;28;20086;-57
2022/10/13 04:28:05;;;;;;;11.75;6.90;;;;;;;14.63;80.06;101724.44;5074870;28;20047;-57
2022/10/13 04:30:34;;;;;;;10.00;6.82;;;;;;;14.64;79.79;101720.69;5074596;28;20418;-58
2022/10/13 04:33:01;;;;;;;12.23;6.72;;;;;;;14.63;79.19;101735.22;5074574;28;20483;-58
2022/10/13 04:35:27;;;;;;;11.60;7.32;;;;;;;14.68;78.90;101728.16;5074472;28;20032;-57
2022/10/13 04:37:53;;;;;;;10.27;6.57;;;;;;;14.67;78.95;101725.69;5074646;28;20503;-58
2022/10/13 04:40:19;;;;;;;12.32;6.55;;;;;;;14.63;78.60;101733.34;5074249;28;20492;-57
2022/10/13 04:42:46;;;;;;;10.00;6.53;;;;;;;14.61;78.53;101732.75;5074382;28;20035;-57
2022/10/13 04:45:12;;;;;;;14.98;6.80;;;;;;;14.34;79.78;101731.09;5074222;28;20402;-57
2022/10/13 04:47:38;;;;;;;12.77;6.55;;;;;;;14.33;79.73;101730.28;5074454;28;20039;-57
2022/10/13 04:50:05;;;;;;;11.57;6.82;;;;;;;14.32;79.33;101725.06;5074408;28;20024;-58
2022/10/13 04:52:33;;;;;;;11.40;6.50;;;;;;;14.23;79.65;101725.31;5074172;28;20027;-58
2022/10/13 04:54:59;;;;;;;12.80;6.60;;;;;;;14.33;79.46;101726.75;5073896;28;20246;-56
2022/10/13 04:57:25;;;;;;;11.77;6.20;;;;;;;14.35;79.28;101728.19;5074221;28;20024;-56
2022/10/13 04:59:51;;;;;;;12.90;6.35;;;;;;;14.34;79.03;101728.41;5074243;28;20534;-56
2022/10/13 05:02:18;;;;;;;10.60;6.75;;;;;;;14.31;78.81;101726.94;5074108;28;20040;-56
2022/10/13 05:04:44;;;;;;;11.52;7.07;;;;;;;14.31;78.83;101721.56;5073693;28;20021;-56
2022/10/13 05:07:10;;;;;;;11.60;6.38;;;;;;;14.30;78.93;101727.97;5072679;28;20028;-56
2022/10/13 05:09:36;;;;;;;10.88;6.47;;;;;;;14.28;78.79;101735.44;5074143;28;20510;-56
2022/10/13 05:12:02;;;;;;;11.85;6.80;;;;;;;14.23;78.72;101736.06;5073998;28;20025;-57
2022/10/13 05:14:29;;;;;;;11.40;6.70;;;;;;;14.28;78.53;101740.84;5074081;28;20415;-57
2022/10/13 05:16:56;;;;;;;9.27;6.68;;;;;;;14.25;78.34;101750.16;5073798;28;20021;-56
2022/10/13 05:19:22;;;;;;;11.55;6.75;;;;;;;14.23;78.07;101735.25;5055389;28;20031;-57
2022/10/13 05:21:49;;;;;;;11.90;6.68;;;;;;;14.16;78.57;101739.81;5053953;28;20025;-57
2022/10/13 05:24:15;;;;;;;15.02;7.30;;;;;;;14.13;78.85;101741.03;5053436;28;20051;-57
2022/10/13 05:26:41;;;;;;;13.15;7.20;;;;;;;14.12;79.01;101743.94;5053697;28;20060;-57
2022/10/13 05:29:08;;;;;;;14.70;6.80;;;;;;;14.11;79.45;101743.13;5053403;28;20029;-57
2022/10/13 05:31:35;;;;;;;11.77;7.63;;;;;;;14.14;79.14;101752.63;5053979;28;20025;-57
2022/10/13 05:34:01;;;;;;;11.18;7.53;;;;;;;14.15;79.20;101744.34;5053292;28;20055;-57
2022/10/13 05:36:30;;;;;;;16.83;8.40;;;;;;;14.13;79.64;101741.03;5055206;28;20032;-57
2022/10/13 05:38:58;;;;;;;14.00;8.30;;;;;;;14.20;79.35;101736.47;5072649;28;20067;-57
2022/10/13 05:41:26;;;;;;;11.23;7.90;;;;;;;14.20;79.57;101744.56;5073058;28;20044;-57
2022/10/13 05:43:56;;;;;;;13.60;7.72;;;;;;;14.14;79.52;101747.25;5073050;28;20021;-57
2022/10/13 05:46:23;;;;;;;16.85;8.20;;;;;;;14.14;79.18;101745.38;5073091;28;20020;-57
2022/10/13 05:48:49;;;;;;;12.52;6.95;;;;;;;14.10;78.76;101746.00;5073118;28;20059;-57
2022/10/13 05:51:19;;;;;;;13.57;7.57;;;;;;;14.06;79.10;101737.53;5073124;28;20029;-57
2022/10/13 05:53:50;;;;;;;15.30;7.95;;;;;;;14.18;78.55;101752.03;5072804;28;20477;-57
2022/10/13 05:56:22;;;;;;;16.08;8.20;;;;;;;14.11;78.93;101747.69;5073031;28;20028;-57
2022/10/13 05:58:58;;;;;;;11.25;7.35;;;;;;;13.94;79.27;101740.03;5073005;28;20024;-57
2022/10/13 06:01:29;;;;;;;9.45;6.80;;;;;;;13.94;78.87;101750.78;5072865;28;20046;-57
2022/10/13 06:04:01;;;;;;;14.20;7.63;;;;;;;13.98;78.47;101746.63;5072505;28;20501;-57
2022/10/13 06:06:28;;;;;;;10.30;6.80;;;;;;;13.92;78.76;101747.44;5072795;28;20028;-57
2022/10/13 06:08:54;;;;;;;11.25;6.95;;;;;;;13.91;78.04;101742.28;5072759;28;20069;-57
2022/10/13 06:11:20;;;;;;;9.73;6.60;;;;;;;13.93;78.11;101753.66;5072700;28;20083;-57
2022/10/13 06:13:46;;;;;;;10.73;7.15;;;;;;;13.75;78.79;101756.94;5072430;28;20025;-57
2022/10/13 06:16:12;;;;;;;10.82;6.82;;;;;;;13.89;78.26;101753.25;5072516;28;20392;-57
2022/10/13 06:18:38;;;;;;;10.02;6.97;;;;;;;13.79;78.69;101755.53;5059920;28;20036;-58
2022/10/13 06:21:05;;;;;;;9.50;7.38;;;;;;;13.72;78.67;101752.00;5051300;28;20484;-57
2022/10/13 06:23:31;;;;;;;12.77;7.05;;;;;;;13.72;78.77;101754.69;5052166;28;20416;-58
2022/10/13 06:25:57;;;;;;;10.75;6.47;;;;;;;13.74;79.13;101755.31;5052397;28;20035;-57
2022/10/13 06:28:23;;;;;;;9.23;6.40;;;;;;;13.82;78.75;101752.41;5052424;28;20112;-57
2022/10/13 06:30:55;;;;;;;8.85;6.20;;;;;;;13.74;79.14;101752.63;5052764;28;20100;-57
2022/10/13 06:33:22;;;;;;;8.90;6.82;;;;;;;13.72;79.49;101754.69;5052496;28;20025;-57
2022/10/13 06:35:50;;;;;;;11.07;6.90;;;;;;;13.65;79.58;101749.28;5052645;28;20151;-58
2022/10/13 06:38:16;;;;;;;9.10;6.97;;;;;;;13.64;79.84;101752.19;5052450;28;20108;-57
2022/10/13 06:40:42;;;;;;;14.07;7.63;;;;;;;13.76;79.69;101761.28;5050820;28;20055;-58
2022/10/13 06:43:09;;;;;;;12.50;6.78;;;;;;;13.71;79.99;101750.31;5050811;28;20021;-57
2022/10/13 06:45:35;;;;;;;10.73;6.68;;;;;;;13.63;80.54;101755.91;5051851;28;20021;-57
2022/10/13 06:48:01;;;;;;;8.38;6.07;;;;;;;13.65;80.05;101753.81;5052194;28;20025;-57
2022/10/13 06:50:28;;;;;;;7.18;5.35;;;;;;;13.65;79.59;101749.28;5051611;28;20032;-57
2022/10/13 06:52:55;;;;;;;7.03;5.45;;;;;;;13.64;79.67;101749.47;5052112;28;20029;-57
2022/10/13 06:55:22;;;;;;;9.65;5.05;;;;;;;13.67;79.22;101747.22;5051600;28;20118;-57
2022/10/13 06:57:48;;;;;;;6.50;4.50;;;;;;;13.71;78.93;101753.88;5051825;28;20039;-57
2022/10/13 07:00:14;;;;;;;6.47;4.22;;;;;;;13.65;79.04;101748.44;5055979;28;20484;-57
2022/10/13 07:02:40;;;;;;;5.95;4.25;;;;;;;13.69;79.14;101747.00;5066276;28;20103;-58
2022/10/13 07:05:07;;;;;;;6.28;4.25;;;;;;;13.56;80.00;101752.38;5071693;28;20028;-57
2022/10/13 07:07:33;;;;;;;6.50;4.10;;;;;;;13.52;80.17;101753.81;5071577;28;20070;-57
2022/10/13 07:09:59;;;;;;;6.50;4.22;;;;;;;13.61;80.12;101753.44;5071788;28;20032;-57
2022/10/13 07:12:26;;;;;;;7.03;4.10;;;;;;;13.66;80.20;101753.66;5071707;28;20029;-58
2022/10/13 07:14:52;;;;;;;5.15;4.13;;;;;;;13.70;79.99;101746.81;5071409;28;20047;-57
2022/10/13 07:17:18;;;;;;;6.45;3.90;;;;;;;13.71;79.95;101737.72;5058934;28;20041;-58
2022/10/13 07:19:47;;;;;;;6.38;4.07;;;;;;;13.78;79.84;101748.50;5065483;28;20032;-58
2022/10/13 07:22:14;;;;;;;5.13;3.65;;;;;;;13.73;79.78;101753.66;5064196;28;20131;-57
2022/10/13 07:24:40;;;;;;;6.13;3.88;;;;;;;13.81;79.59;101750.75;5071743;28;20033;-58
2022/10/13 07:27:06;;;;;;;9.85;3.97;;;;;;;13.75;79.43;101756.94;5071933;28;20055;-57
2022/10/13 07:29:32;;;;;;;8.77;4.28;;;;;;;13.81;79.24;101750.75;5071631;28;20029;-58
2022/10/13 07:31:58;;;;;;;5.38;3.83;;;;;;;13.82;79.35;101746.19;5071700;28;20050;-58
2022/10/13 07:34:24;;;;;;;5.05;3.92;;;;;;;13.88;78.89;101740.00;5063654;28;20032;-57
2022/10/13 07:36:51;;;;;;;5.63;3.65;;;;;;;13.89;78.96;101745.19;5071667;28;20047;-58
2022/10/13 07:39:17;;;;;;;3.33;2.80;;;;;;;13.88;79.08;101748.91;5071567;28;20025;-58
2022/10/13 07:41:43;;;;;;;4.35;3.33;;;;;;;13.79;78.97;101742.06;5071328;28;20070;-58
2022/10/13 07:44:09;;;;;;;7.93;3.58;;;;;;;13.83;78.97;101740.63;5071172;28;20020;-57
2022/10/13 07:46:35;;;;;;;5.63;2.75;;;;;;;13.90;79.02;101751.41;5071504;28;20048;-58
2022/10/13 07:49:02;;;;;;;2.80;2.25;;;;;;;13.76;79.75;101755.09;5071504;28;20020;-58
2022/10/13 07:51:28;;;;;;;2.95;2.40;;;;;;;13.80;79.84;101751.78;5071444;28;20112;-58
2022/10/13 07:53:54;;;;;;;3.42;2.15;;;;;;;13.99;78.94;101751.00;5071116;28;20028;-57
2022/10/13 07:56:20;;;;;;;2.70;1.98;;;;;;;14.06;78.83;101744.78;5071227;28;20020;-58
2022/10/13 07:58:47;;;;;;;3.60;1.90;;;;;;;14.18;78.53;101749.34;5071567;28;20028;-57
2022/10/13 08:01:15;;;;;;;2.88;1.83;;;;;;;14.29;78.28;101750.56;5072443;28;20090;-58
2022/10/13 08:03:42;;;;;;;3.20;1.92;;;;;;;14.26;78.00;101753.66;5074970;28;20444;-58
2022/10/13 08:06:09;;;;;;;3.05;2.17;;;;;;;14.23;77.47;101746.03;5075128;28;20115;-58
2022/10/13 08:08:35;;;;;;;2.85;2.05;;;;;;;14.35;76.73;101752.44;5074992;28;20036;-57
2022/10/13 08:13:33;;;;;;;2.70;1.98;;;;;;;14.19;77.05;101748.28;4993737;28;20121;-58
2022/10/13 08:16:00;;;;;;;3.03;1.83;;;;;;;14.26;77.11;101754.50;4995583;28;20038;-58
2022/10/13 08:18:27;;;;;;;2.33;1.55;;;;;;;14.29;77.19;101752.44;4995457;28;20244;-58
2022/10/13 08:20:54;;;;;;;3.13;1.70;;;;;;;14.25;77.61;101754.72;4995391;28;20096;-57
2022/10/13 08:23:20;;;;;;;2.47;1.52;;;;;;;14.43;76.58;101757.59;4995254;28;20023;-58
2022/10/13 08:25:46;;;;;;;2.03;1.20;;;;;;;14.27;76.86;101753.47;4995234;28;20019;-58
2022/10/13 08:28:22;;;;;;;2.55;1.30;;;;;;;14.31;77.01;101753.88;4995392;28;20493;-57
2022/10/13 08:30:52;;;;;;;2.65;1.42;;;;;;;14.26;77.23;101745.59;4995322;28;20061;-58
2022/10/13 08:33:19;;;;;;;2.90;1.80;;;;;;;14.39;76.87;101750.97;4995241;28;20475;-58
2022/10/13 08:35:45;;;;;;;2.42;1.55;;;;;;;14.37;76.65;101754.91;4994469;28;20616;-57
2022/10/13 08:38:12;;;;;;;2.17;1.50;;;;;;;14.37;76.95;101754.91;4994155;28;20026;-58
2022/10/13 08:40:39;;;;;;;1.65;1.35;;;;;;;14.37;76.76;101746.81;4995055;28;20500;-58
2022/10/13 08:43:11;;;;;;;2.85;1.27;;;;;;;14.29;77.17;101738.97;4994746;28;20074;-58
2022/10/13 08:45:38;;;;;;;1.77;1.30;;;;;;;14.41;77.00;101740.00;4994846;28;20438;-58
2022/10/13 08:48:17;;;;;;;2.17;1.60;;;;;;;14.46;76.42;101732.13;4995306;28;20049;-57
2022/10/13 08:50:47;;;;;;;3.67;1.65;;;;;;;14.44;76.36;101739.59;4994848;28;20061;-57
2022/10/13 08:53:27;;;;;;;2.20;1.50;;;;;;;14.38;76.74;101737.69;4994854;28;20056;-58
2022/10/13 08:55:56;;;;;;;1.65;1.30;;;;;;;14.36;76.57;101735.22;4994859;28;20030;-58
2022/10/13 08:58:32;;;;;;;2.17;1.50;;;;;;;14.35;76.34;101735.44;4994768;28;20027;-58
2022/10/13 09:01:16;;;;;;;2.38;1.50;;;;;;;14.34;76.61;101740.00;4994609;28;20027;-58
2022/10/13 09:03:48;;;;;;;1.92;1.48;;;;;;;14.35;76.38;101744.34;4994513;28;20471;-58
2022/10/13 09:06:30;;;;;;;2.25;1.20;;;;;;;14.19;77.06;101750.16;4994828;28;20538;-58
2022/10/13 09:09:01;;;;;;;2.25;1.42;;;;;;;14.30;76.39;101746.84;4994589;28;20054;-57
2022/10/13 09:11:36;;;;;;;2.90;1.40;;;;;;;14.33;76.35;101757.19;4981545;28;20089;-58
2022/10/13 09:14:20;;;;;;;2.45;1.58;;;;;;;14.33;76.14;101751.81;4975205;28;20031;-58
2022/10/13 09:16:48;;;;;;;1.95;1.27;;;;;;;14.29;75.91;101747.88;4975063;28;20466;-57
2022/10/13 09:19:17;;;;;;;2.95;1.10;;;;;;;14.27;75.85;101744.56;4975117;28;20114;-58
2022/10/13 09:21:43;;;;;;;1.15;1.08;;;;;;;14.27;75.72;101745.41;4975046;28;20027;-57
2022/10/13 09:24:15;;;;;;;2.63;1.17;;;;;;;14.36;75.53;101750.56;4975011;28;20034;-57
2022/10/13 09:26:43;;;;;;;1.63;1.02;;;;;;;14.29;75.73;101744.34;4974981;28;20022;-58
2022/10/13 09:29:23;;;;;;;2.05;1.23;;;;;;;14.40;74.92;101751.81;4975385;28;20461;-57
2022/10/13 09:31:53;;;;;;;2.10;1.08;;;;;;;14.35;75.22;101747.03;4974714;28;20113;-58
2022/10/13 09:34:19;;;;;;;2.03;1.00;;;;;;;14.39;75.24;101740.22;4974486;28;20424;-58
2022/10/13 09:36:55;;;;;;;1.42;0.98;;;;;;;14.34;75.38;101744.56;4974352;28;20039;-58
2022/10/13 09:39:21;;;;;;;0.73;0.73;;;;;;;14.33;75.75;101743.75;4974590;28;20035;-57
2022/10/13 09:41:48;;;;;;;1.73;1.05;;;;;;;14.35;75.77;101746.22;4974670;28;20121;-58
2022/10/13 09:44:26;;;;;;;0.60;0.60;;;;;;;14.35;75.15;101740.81;4974276;28;20057;-57
2022/10/13 09:47:03;;;;;;;1.20;0.88;;;;;;;14.43;75.27;101741.41;4974443;28;20472;-58
2022/10/13 09:49:33;;;;;;;1.23;0.75;;;;;;;14.50;74.85;101738.78;4974540;28;20118;-58
2022/10/13 09:52:04;;;;;;;0.80;0.60;;;;;;;14.36;74.90;101731.69;4974563;28;20646;-58
2022/10/13 09:54:40;;;;;;;1.33;0.60;;;;;;;14.29;75.32;101737.09;4974022;28;20037;-58
2022/10/13 09:57:28;;;;;;;0.82;0.80;;;;;;;14.30;75.14;101736.06;4974259;28;20027;-58
2022/10/13 10:00:18;;;;;;;1.42;0.60;;;;;;;14.34;75.16;101741.88;4974205;28;20151;-58
2022/10/13 10:02:57;;;;;;;0.95;0.60;;;;;;;14.27;75.25;101733.81;4974326;28;20054;-57
2022/10/13 10:05:45;;;;;;;0.98;0.52;;;;;;;14.21;75.87;101735.47;4974189;28;20033;-57
2022/10/13 10:08:45;;;;;;;1.20;0.50;;;;;;;14.30;75.84;101737.94;4974077;28;20626;-57
2022/10/13 10:11:16;;;;;;;0.88;0.50;;;;;;;14.23;75.31;101730.69;4973853;28;20502;-57
2022/10/13 10:13:42;;;;;;;0.70;0.70;;;;;;;14.27;75.38;101726.56;4973700;28;20073;-58
2022/10/13 10:16:30;;;;;;;1.15;1.00;;;;;;;14.25;75.95;101734.00;4974127;28;20062;-58
2022/10/13 10:19:02;;;;;;;1.45;1.00;;;;;;;14.23;76.04;101725.31;4974008;28;20023;-58
2022/10/13 10:22:30;;;;;;;1.17;1.08;;;;;;;14.16;76.45;101723.66;4974046;28;20406;-57
2022/10/13 10:25:03;;;;;;;1.50;0.80;;;;;;;14.22;76.49;101731.72;4892034;29;20162;-57
2022/10/13 10:27:49;;;;;;;1.50;0.90;;;;;;;14.23;76.06;101721.78;4973752;28;20031;-57
2022/10/13 10:30:20;;;;;;;0.60;0.60;;;;;;;14.10;76.58;101722.63;4973962;28;20483;-58
2022/10/13 10:32:58;;;;;;;1.85;0.95;;;;;;;14.14;77.09;101725.72;4973628;28;20062;-58
2022/10/13 10:35:56;;;;;;;1.67;0.95;;;;;;;14.12;77.05;101717.84;4973582;28;20078;-58
2022/10/13 10:38:50;;;;;;;0.57;0.50;;;;;;;14.29;76.66;101712.03;4956302;28;20496;-58
2022/10/13 10:41:54;;;;;;;1.55;0.70;;;;;;;14.34;76.18;101715.75;4973618;28;20049;-58
2022/10/13 10:44:41;;;;;;;0.90;0.70;;;;;;;14.21;76.46;101707.69;4973348;28;20058;-58
2022/10/13 10:47:17;;;;;;;1.90;0.60;;;;;;;14.16;76.23;101710.19;4973405;28;20574;-57
2022/10/13 10:49:43;;;;;;;5.15;1.00;;;;;;;14.18;76.42;101714.31;4973628;28;20489;-57
2022/10/13 10:52:19;;;;;;;0.70;0.65;;;;;;;14.17;76.27;101714.53;4973387;28;20114;-58
2022/10/13 10:55:43;;;;;;;1.10;0.73;;;;;;;14.13;76.44;101703.34;4973150;28;20468;-57
2022/10/13 10:58:41;;;;;;;2.08;0.65;;;;;;;14.33;76.00;101706.03;4929799;28;20058;-58
2022/10/13 11:01:10;;;;;;;0.45;0.43;;;;;;;14.28;75.95;101711.22;4965385;28;20081;-58
2022/10/13 11:03:43;;;;;;;1.80;0.60;;;;;;;14.24;75.97;101696.50;4972912;28;20027;-58
2022/10/13 11:06:12;;;;;;;0.45;0.40;;;;;;;14.39;75.43;101699.81;4973228;28;20109;-57
2022/10/13 11:08:42;;;;;;;0.82;0.40;;;;;;;14.21;75.70;101696.91;4972888;28;20066;-58
2022/10/13 11:11:24;;;;;;;0.30;0.30;;;;;;;14.19;76.16;101686.34;4973082;28;20093;-58
2022/10/13 11:13:52;;;;;;;0.95;0.40;;;;;;;14.19;75.97;101689.06;4972840;28;20034;-58
2022/10/13 11:16:31;;;;;;;0.30;0.30;;;;;;;14.35;75.05;101690.47;4973052;28;20034;-58
2022/10/13 11:19:07;;;;;;;0.35;0.30;;;;;;;14.40;75.07;101693.38;4972920;28;20430;-58
2022/10/13 11:21:52;;;;;;;0.28;0.28;;;;;;;14.32;75.48;101690.88;4973202;28;20034;-58
2022/10/13 11:24:48;;;;;;;0.75;0.40;;;;;;;14.33;75.73;101694.44;4972587;28;20038;-57
2022/10/13 11:27:14;;;;;;;0.50;0.50;;;;;;;14.39;75.57;101691.72;4960745;28;20034;-57
2022/10/13 11:29:47;;;;;;;0.65;0.43;;;;;;;14.24;75.53;101693.81;4972888;28;20027;-56
2022/10/13 11:32:26;;;;;;;1.73;0.22;;;;;;;14.24;75.60;101688.44;4973879;28;20039;-56
2022/10/13 11:35:04;;;;;;;0.30;0.30;;;;;;;14.28;75.32;101692.38;4983801;28;20041;-57
2022/10/13 11:37:48;;;;;;;2.08;0.43;;;;;;;14.42;75.18;101695.84;4976861;28;20027;-56
2022/10/13 11:40:30;;;;;;;0.30;0.30;;;;;;;14.24;75.54;101691.94;4994220;28;20052;-57